Portada
METAR-TAF:

METAR-TAF

Aeropuertos :

Alice Springs, Australia

latitud: 23-48S, longitud: 133-53E, altitud: 545 m

Observación

El informe se hizo hace 18 minutos, a las 04:00 UTC
Viento 8 kt del norte, variando entre norte-noroeste y norte-noreste
Temperatura 37°C
Humedad 9%
Presión 1012 hPa
Visibilidad 10 km o más

METAR: YBAS 220400Z AUTO 36008KT 330V030 9999 // NCD 37/M01 Q1012 RF00.0/000.0 PRESENT WEATHER SENSOR US

Hora: 13:48 (04:18 UTC)

Pronóstico

El informe se hizo hace 5 horas y 4 minutos, a las 23:14 UTC
Pronóstico válido del 22 a las 00 UTC al 22 a las 24 UTC
Viento 8 kt del este-noreste
Visibilidad 10 km o más
sin nubes por debajo de 1500 m y sin presencia de cumulonimbus.

TAF: YBAS 212314Z 2200/2224 06008KT CAVOK

Observaciones y pronósticos meteorológicos de más de 4000 aeropuertos (mensajes METAR y TAF).

Los puntos amarillos y rojos representan las estaciones disponibles.

Ponga el ratón en el punto deseado para ver el nombre de la estación.

Haga clic para ver las observaciones y los pronósticos meteorológicos.

Para cambiar el mapa : haga clic en los botones verdes con una cruz de color negro para hacer un zoom, en el botón verde con un guión para alejar o en las flechas verdes para mapas adyacentes.


METAR-TAF: